Time;durP1;ratioP1;P1;durP2;ratioP2;P2;SDS_P1;SDS_P2;PMS_P1;PMS_P2;Temp;Humidity;BMP_temperature;BMP_pressure;BME280_temperature;BME280_humidity;BME280_pressure;Samples;Min_cycle;Max_cycle;Signal;HPM_P1;HPM_P2
2023/05/04 00:01:31;;;;;;;2.55;1.48;;;10.40;60.70;;;;;;4943575;28;20066;-86
2023/05/04 00:03:59;;;;;;;2.90;1.55;;;10.30;60.70;;;;;;4959194;28;20105;-87
2023/05/04 00:06:26;;;;;;;2.85;1.63;;;10.30;61.40;;;;;;4943854;28;20082;-87
2023/05/04 00:08:55;;;;;;;2.80;1.50;;;10.30;60.90;;;;;;4959399;28;20054;-87
2023/05/04 00:11:22;;;;;;;4.07;2.00;;;10.20;61.00;;;;;;4943038;28;20072;-86
2023/05/04 00:13:49;;;;;;;4.47;1.95;;;10.20;61.30;;;;;;4943046;28;20047;-87
2023/05/04 00:16:16;;;;;;;3.33;2.00;;;10.20;61.30;;;;;;4942740;28;20117;-87
2023/05/04 00:18:43;;;;;;;3.88;2.28;;;10.20;61.50;;;;;;4958615;28;20047;-87
2023/05/04 00:21:11;;;;;;;4.70;2.25;;;10.10;61.90;;;;;;4965475;28;20065;-87
2023/05/04 00:23:38;;;;;;;3.90;2.30;;;10.10;61.80;;;;;;4949075;28;20077;-87
2023/05/04 00:26:05;;;;;;;3.88;2.13;;;10.10;62.10;;;;;;4958734;28;20051;-87
2023/05/04 00:28:32;;;;;;;3.95;2.10;;;10.10;62.10;;;;;;4974633;28;20148;-87
2023/05/04 00:30:59;;;;;;;4.22;1.70;;;10.10;62.20;;;;;;4956226;28;20056;-87
2023/05/04 00:33:26;;;;;;;3.88;1.98;;;10.00;62.40;;;;;;4956004;28;20105;-87
2023/05/04 00:35:54;;;;;;;3.03;1.40;;;10.00;62.30;;;;;;4958632;28;20042;-87
2023/05/04 00:38:21;;;;;;;2.65;1.85;;;10.00;62.40;;;;;;4927025;28;20038;-87
2023/05/04 00:40:48;;;;;;;3.28;1.35;;;10.00;62.70;;;;;;4939166;29;20051;-87
2023/05/04 00:43:15;;;;;;;3.35;1.50;;;10.00;62.60;;;;;;4955738;28;20050;-86
2023/05/04 00:45:43;;;;;;;4.78;1.85;;;9.90;62.70;;;;;;4942338;28;20133;-87
2023/05/04 00:48:10;;;;;;;3.33;1.77;;;9.90;62.90;;;;;;4942387;28;20047;-87
2023/05/04 00:50:38;;;;;;;3.05;1.83;;;9.90;63.00;;;;;;4926925;28;20414;-87
2023/05/04 00:53:10;;;;;;;4.38;1.98;;;9.80;63.00;;;;;;4926952;28;20384;-87
2023/05/04 00:55:39;;;;;;;2.70;1.33;;;9.80;63.20;;;;;;4926455;28;20051;-87
2023/05/04 00:58:08;;;;;;;2.40;1.25;;;9.80;63.30;;;;;;4963078;28;20043;-88
2023/05/04 01:00:35;;;;;;;3.17;1.48;;;9.70;63.30;;;;;;4957509;28;20113;-87
2023/05/04 01:03:03;;;;;;;5.22;2.00;;;9.70;63.60;;;;;;4953849;28;20097;-87
2023/05/04 01:05:35;;;;;;;4.88;2.30;;;9.70;63.70;;;;;;4962369;28;20098;-87
2023/05/04 01:08:11;;;;;;;3.08;1.55;;;9.70;63.90;;;;;;4942558;28;20047;-87
2023/05/04 01:11:01;;;;;;;3.22;1.25;;;9.70;63.90;;;;;;4959488;28;20406;-87
2023/05/04 01:13:29;;;;;;;3.25;1.75;;;9.70;63.90;;;;;;4957856;28;20057;-87
2023/05/04 01:15:57;;;;;;;3.17;1.80;;;9.60;64.00;;;;;;4941960;28;20047;-87
2023/05/04 01:18:25;;;;;;;3.17;1.65;;;9.60;64.10;;;;;;4969717;28;20306;-86
2023/05/04 01:20:52;;;;;;;3.03;1.55;;;9.60;64.20;;;;;;4961333;28;20043;-87
2023/05/04 01:23:20;;;;;;;5.18;2.05;;;9.50;64.30;;;;;;4943266;28;20500;-87
2023/05/04 01:25:49;;;;;;;3.30;1.67;;;9.50;64.50;;;;;;4941978;28;20055;-87
2023/05/04 01:28:21;;;;;;;4.03;1.30;;;9.50;64.60;;;;;;4974122;28;20488;-87
2023/05/04 01:30:52;;;;;;;3.25;1.52;;;9.50;64.50;;;;;;4941785;28;20137;-86
2023/05/04 01:33:20;;;;;;;2.55;1.35;;;9.50;64.70;;;;;;4942237;28;20069;-87
2023/05/04 01:35:48;;;;;;;3.88;1.60;;;9.40;64.70;;;;;;4942508;28;20517;-87
2023/05/04 01:38:16;;;;;;;3.78;1.48;;;9.40;64.80;;;;;;4942431;28;20451;-87
2023/05/04 01:40:43;;;;;;;5.07;2.53;;;9.40;64.90;;;;;;4941632;28;20042;-87
2023/05/04 01:43:14;;;;;;;3.90;2.13;;;9.40;65.10;;;;;;4942341;28;20058;-87
2023/05/04 01:45:41;;;;;;;2.75;1.75;;;9.30;65.20;;;;;;4957873;28;20059;-87
2023/05/04 01:48:08;;;;;;;2.97;1.27;;;9.30;65.30;;;;;;4957951;28;20097;-87
2023/05/04 01:50:35;;;;;;;4.75;1.17;;;9.30;65.30;;;;;;4945379;28;20051;-87
2023/05/04 01:53:02;;;;;;;3.83;1.48;;;9.20;65.30;;;;;;4938299;28;20050;-87
2023/05/04 01:55:30;;;;;;;2.08;1.20;;;9.20;65.40;;;;;;4926245;28;20079;-87
2023/05/04 01:57:57;;;;;;;3.55;1.40;;;9.20;65.50;;;;;;4957537;28;20118;-87
2023/05/04 02:00:24;;;;;;;3.10;1.50;;;9.20;65.60;;;;;;4941770;28;20053;-87
2023/05/04 02:02:51;;;;;;;3.72;1.52;;;9.20;65.60;;;;;;4957552;28;20043;-87
2023/05/04 02:05:19;;;;;;;2.97;1.63;;;9.10;65.60;;;;;;4957418;28;20119;-87
2023/05/04 02:07:47;;;;;;;3.20;1.58;;;9.10;65.80;;;;;;4937933;29;20059;-87
2023/05/04 02:10:15;;;;;;;3.30;1.70;;;9.10;65.80;;;;;;4953104;28;20557;-87
2023/05/04 02:12:42;;;;;;;2.78;1.50;;;9.10;65.90;;;;;;4921566;28;20047;-87
2023/05/04 02:15:09;;;;;;;3.55;1.27;;;9.10;65.90;;;;;;4923068;28;20039;-87
2023/05/04 02:17:37;;;;;;;3.42;1.67;;;9.10;66.00;;;;;;4973376;28;20102;-87
2023/05/04 02:20:05;;;;;;;2.72;1.52;;;9.00;66.10;;;;;;4960154;28;20055;-87
2023/05/04 02:22:33;;;;;;;2.38;1.30;;;9.00;66.90;;;;;;4975803;28;20046;-87
2023/05/04 02:25:01;;;;;;;4.15;1.42;;;9.00;66.30;;;;;;4944321;28;20047;-87
2023/05/04 02:27:30;;;;;;;3.72;1.60;;;9.00;66.40;;;;;;4960058;28;20043;-87
2023/05/04 02:29:59;;;;;;;3.22;1.73;;;9.00;66.50;;;;;;4960519;28;20042;-87
2023/05/04 02:32:29;;;;;;;4.20;2.00;;;8.90;66.50;;;;;;4928461;28;20066;-87
2023/05/04 02:34:56;;;;;;;4.55;2.08;;;8.90;66.60;;;;;;4975983;28;20050;-87
2023/05/04 02:37:23;;;;;;;2.80;1.40;;;8.90;66.60;;;;;;4960016;28;20098;-87
2023/05/04 02:39:50;;;;;;;2.40;1.25;;;8.90;66.70;;;;;;4975940;28;20051;-87
2023/05/04 02:42:18;;;;;;;2.75;1.30;;;8.90;66.70;;;;;;4960075;28;20054;-87
2023/05/04 02:44:45;;;;;;;4.43;2.03;;;8.90;67.40;;;;;;4976132;28;20047;-86
2023/05/04 02:47:12;;;;;;;3.85;1.70;;;8.90;66.90;;;;;;4960834;28;20051;-87
2023/05/04 02:49:42;;;;;;;3.95;2.10;;;8.80;67.00;;;;;;4992737;28;20499;-87
2023/05/04 02:52:09;;;;;;;4.35;2.20;;;8.80;67.30;;;;;;4960561;28;20094;-87
2023/05/04 02:54:37;;;;;;;3.08;1.67;;;8.80;67.20;;;;;;4960510;28;20085;-87
2023/05/04 02:57:05;;;;;;;4.43;2.00;;;8.80;67.30;;;;;;4960465;28;20047;-87
2023/05/04 02:59:33;;;;;;;3.00;1.48;;;8.80;67.40;;;;;;4960113;28;20042;-86
2023/05/04 03:02:00;;;;;;;3.08;1.52;;;8.70;67.40;;;;;;4976298;28;20042;-86
2023/05/04 03:04:29;;;;;;;3.55;1.70;;;8.70;67.50;;;;;;4957462;28;20050;-86
2023/05/04 03:06:56;;;;;;;2.15;1.38;;;8.70;67.50;;;;;;4958993;28;20057;-85
2023/05/04 03:09:24;;;;;;;3.80;1.63;;;8.70;67.50;;;;;;4960086;28;20411;-85
2023/05/04 03:11:51;;;;;;;3.15;1.50;;;8.70;67.60;;;;;;4944482;28;20046;-86
2023/05/04 03:14:18;;;;;;;3.58;1.30;;;8.70;67.70;;;;;;4959906;28;20046;-86
2023/05/04 03:16:45;;;;;;;2.58;1.60;;;8.60;67.70;;;;;;4981110;28;20058;-86
2023/05/04 03:19:17;;;;;;;2.75;1.20;;;8.60;67.80;;;;;;4989668;28;20062;-86
2023/05/04 03:21:47;;;;;;;4.10;1.23;;;8.60;67.80;;;;;;4960057;28;20430;-86
2023/05/04 03:24:17;;;;;;;3.47;1.67;;;8.60;67.80;;;;;;4964318;28;20137;-85
2023/05/04 03:26:46;;;;;;;2.42;1.35;;;8.50;67.90;;;;;;4959643;28;20074;-86
2023/05/04 03:29:14;;;;;;;2.85;1.42;;;8.50;67.90;;;;;;4943844;28;20039;-85
2023/05/04 03:31:41;;;;;;;3.65;1.80;;;8.50;68.10;;;;;;4943691;28;20124;-86
2023/05/04 03:34:20;;;;;;;2.90;1.63;;;8.50;68.20;;;;;;4945275;28;20058;-85
2023/05/04 03:36:52;;;;;;;2.83;1.33;;;8.50;68.20;;;;;;4965224;28;20074;-85
2023/05/04 03:39:19;;;;;;;3.35;1.48;;;8.40;68.20;;;;;;4975490;28;20051;-85
2023/05/04 03:41:51;;;;;;;2.28;1.30;;;8.40;68.30;;;;;;4946834;28;20038;-86
2023/05/04 03:44:19;;;;;;;;;;;8.40;68.40;;;;;;4947242;28;20046;-85
2023/05/04 03:46:46;;;;;;;3.53;1.42;;;8.30;68.40;;;;;;4959519;28;19928;-86
2023/05/04 03:49:16;;;;;;;2.45;1.00;;;8.30;68.40;;;;;;4943254;28;20051;-86
2023/05/04 03:51:43;;;;;;;3.13;1.42;;;8.30;68.40;;;;;;4959064;28;20047;-85
2023/05/04 03:54:11;;;;;;;3.05;1.25;;;8.30;68.50;;;;;;4958940;28;20050;-85
2023/05/04 03:56:38;;;;;;;2.15;1.02;;;8.30;68.60;;;;;;4973068;28;20049;-86
2023/05/04 03:59:05;;;;;;;2.55;0.95;;;8.30;68.60;;;;;;4943562;28;20098;-85
2023/05/04 04:01:33;;;;;;;2.42;1.38;;;8.30;68.60;;;;;;4943387;28;20043;-86
2023/05/04 04:04:01;;;;;;;2.65;1.17;;;8.30;68.70;;;;;;4943418;28;20043;-86
2023/05/04 04:06:29;;;;;;;2.72;0.95;;;8.30;68.70;;;;;;4959558;28;20050;-85
2023/05/04 04:08:56;;;;;;;2.70;1.40;;;8.30;68.70;;;;;;4943224;28;20074;-86
2023/05/04 04:11:25;;;;;;;3.17;1.48;;;8.30;68.90;;;;;;4950616;28;20491;-86
2023/05/04 04:13:52;;;;;;;2.60;1.33;;;8.30;69.00;;;;;;4945777;28;20046;-83
2023/05/04 04:16:20;;;;;;;2.05;0.98;;;8.20;69.00;;;;;;4977966;28;20061;-85
2023/05/04 04:18:47;;;;;;;2.75;1.30;;;8.20;69.00;;;;;;4958801;28;20043;-86
2023/05/04 04:21:18;;;;;;;3.85;1.58;;;8.20;69.10;;;;;;4947531;28;20051;-85
2023/05/04 04:23:47;;;;;;;4.22;1.50;;;8.20;69.00;;;;;;4958880;28;20039;-85
2023/05/04 04:26:14;;;;;;;2.80;1.23;;;8.20;69.10;;;;;;4958259;28;20046;-85
2023/05/04 04:28:43;;;;;;;2.35;0.98;;;8.20;69.10;;;;;;4957682;28;20065;-85
2023/05/04 04:31:10;;;;;;;3.25;1.63;;;8.20;69.20;;;;;;4978928;28;20059;-87
2023/05/04 04:33:38;;;;;;;3.28;1.50;;;8.30;69.20;;;;;;4958822;28;20058;-85
2023/05/04 04:36:06;;;;;;;2.63;1.58;;;8.30;69.20;;;;;;4974428;28;20042;-86
2023/05/04 04:38:34;;;;;;;3.35;1.58;;;8.30;69.20;;;;;;4971218;28;20048;-86
2023/05/04 04:41:01;;;;;;;2.80;1.10;;;8.30;69.20;;;;;;4961657;28;20042;-86
2023/05/04 04:43:28;;;;;;;2.78;1.60;;;8.30;69.20;;;;;;4974373;28;20097;-86
2023/05/04 04:45:55;;;;;;;2.97;1.40;;;8.30;69.20;;;;;;4958144;28;20494;-86
2023/05/04 04:48:24;;;;;;;3.60;1.75;;;8.40;69.20;;;;;;4958094;28;20150;-86
2023/05/04 04:50:51;;;;;;;3.05;1.48;;;8.40;69.20;;;;;;4974628;28;20054;-86
2023/05/04 04:53:19;;;;;;;3.42;2.10;;;8.40;69.20;;;;;;4958081;28;20149;-85
2023/05/04 04:55:46;;;;;;;3.15;1.40;;;8.40;69.20;;;;;;4957911;28;20133;-86
2023/05/04 04:58:15;;;;;;;4.82;2.00;;;8.50;69.20;;;;;;4942524;28;20046;-85
2023/05/04 05:00:44;;;;;;;3.13;1.75;;;8.50;69.20;;;;;;4957885;28;20043;-86
2023/05/04 05:03:11;;;;;;;3.83;2.00;;;8.50;69.20;;;;;;4973926;28;20421;-85
2023/05/04 05:05:41;;;;;;;3.78;2.20;;;8.50;69.20;;;;;;4965486;28;20054;-86
2023/05/04 05:08:08;;;;;;;3.47;2.00;;;8.60;69.20;;;;;;4957899;28;20455;-86
2023/05/04 05:10:35;;;;;;;3.88;2.00;;;8.60;69.20;;;;;;4973961;28;20101;-85
2023/05/04 05:13:05;;;;;;;3.92;2.22;;;8.60;69.10;;;;;;4941879;28;20046;-87
2023/05/04 05:15:32;;;;;;;3.75;2.13;;;8.70;69.20;;;;;;4957414;28;20498;-86
2023/05/04 05:18:00;;;;;;;4.43;2.33;;;8.70;69.10;;;;;;4942401;28;20051;-86
2023/05/04 05:20:30;;;;;;;3.45;2.00;;;8.80;69.10;;;;;;4957863;28;20064;-86
2023/05/04 05:23:00;;;;;;;4.07;2.50;;;8.80;69.00;;;;;;4942037;28;20046;-86
2023/05/04 05:25:43;;;;;;;4.07;2.35;;;8.90;69.00;;;;;;5124086;27;20374;-86
2023/05/04 05:28:12;;;;;;;3.17;1.90;;;8.90;69.10;;;;;;5085513;28;20048;-86
2023/05/04 05:30:41;;;;;;;5.97;2.92;;;8.90;69.00;;;;;;5061355;28;20143;-86
2023/05/04 05:33:09;;;;;;;3.78;2.40;;;9.00;69.00;;;;;;5072577;28;20055;-86
2023/05/04 05:35:36;;;;;;;3.75;1.75;;;9.00;68.90;;;;;;5083097;28;20040;-86
2023/05/04 05:38:03;;;;;;;2.63;1.50;;;9.10;68.80;;;;;;5055455;28;20055;-87
2023/05/04 05:40:32;;;;;;;3.08;1.85;;;9.20;68.60;;;;;;5064879;28;20143;-86
2023/05/04 05:42:59;;;;;;;2.45;1.52;;;9.30;68.50;;;;;;5076496;28;20094;-86
2023/05/04 05:45:26;;;;;;;4.93;2.03;;;9.30;68.40;;;;;;5073165;28;20091;-86
2023/05/04 05:47:54;;;;;;;3.55;1.83;;;9.40;68.30;;;;;;5056406;28;20048;-86
2023/05/04 05:50:22;;;;;;;3.92;2.47;;;9.50;68.30;;;;;;5076885;28;20068;-86
2023/05/04 05:52:50;;;;;;;4.72;1.92;;;9.50;68.20;;;;;;5075987;28;20041;-86
2023/05/04 05:55:20;;;;;;;3.78;2.08;;;9.50;68.10;;;;;;5083822;28;20045;-86
2023/05/04 05:57:47;;;;;;;2.42;1.30;;;9.60;68.20;;;;;;5053219;28;20067;-85
2023/05/04 06:00:15;;;;;;;4.82;1.67;;;9.60;68.00;;;;;;5045557;28;20459;-86
2023/05/04 06:02:42;;;;;;;3.53;2.10;;;9.70;67.90;;;;;;5069469;28;20143;-85
2023/05/04 06:05:10;;;;;;;2.72;1.50;;;9.80;67.80;;;;;;5062057;28;20049;-86
2023/05/04 06:07:37;;;;;;;4.85;1.98;;;9.90;67.70;;;;;;5068983;28;20060;-86
2023/05/04 06:10:05;;;;;;;4.03;2.28;;;10.00;67.60;;;;;;5069027;28;20055;-85
2023/05/04 06:12:33;;;;;;;2.80;1.38;;;10.00;67.50;;;;;;5054043;28;20155;-86
2023/05/04 06:15:01;;;;;;;3.58;1.63;;;10.10;67.40;;;;;;5065236;28;20048;-86
2023/05/04 06:17:29;;;;;;;2.40;1.20;;;10.20;67.40;;;;;;5069061;28;20044;-86
2023/05/04 06:19:59;;;;;;;2.97;2.00;;;10.30;67.20;;;;;;5052078;28;20047;-86
2023/05/04 06:22:26;;;;;;;3.13;1.63;;;10.40;67.10;;;;;;5066944;28;20051;-86
2023/05/04 06:24:56;;;;;;;4.13;1.92;;;10.50;66.90;;;;;;5061486;28;20049;-86
2023/05/04 06:27:32;;;;;;;2.17;1.08;;;10.60;66.80;;;;;;5042910;28;20048;-87
2023/05/04 06:29:59;;;;;;;1.92;0.80;;;10.60;66.60;;;;;;5058902;28;20041;-87
2023/05/04 06:32:26;;;;;;;2.95;1.30;;;10.70;66.50;;;;;;5065359;28;20041;-87
2023/05/04 06:34:58;;;;;;;3.50;1.60;;;10.80;66.40;;;;;;5068613;28;20040;-86
2023/05/04 06:37:25;;;;;;;3.05;1.98;;;10.90;66.20;;;;;;5046963;28;20060;-86
2023/05/04 06:39:57;;;;;;;3.05;1.10;;;11.00;66.10;;;;;;5055611;28;20040;-86
2023/05/04 06:42:29;;;;;;;3.97;1.45;;;11.10;66.10;;;;;;5042354;28;20056;-86
2023/05/04 06:44:57;;;;;;;4.65;1.45;;;11.10;65.90;;;;;;5053264;28;20048;-86
2023/05/04 06:47:27;;;;;;;2.70;1.27;;;11.20;65.90;;;;;;5038909;28;20045;-86
2023/05/04 06:49:59;;;;;;;4.07;1.88;;;11.20;65.90;;;;;;5038746;28;20136;-86
2023/05/04 06:52:28;;;;;;;3.92;2.17;;;11.30;65.80;;;;;;5042986;28;20049;-84
2023/05/04 06:54:55;;;;;;;3.58;1.70;;;11.40;65.70;;;;;;5053262;28;20102;-85
2023/05/04 06:57:22;;;;;;;3.47;1.80;;;11.40;65.50;;;;;;5050949;28;20141;-85
2023/05/04 06:59:51;;;;;;;4.22;2.13;;;11.50;65.40;;;;;;5067809;28;20048;-85
2023/05/04 07:02:21;;;;;;;5.68;2.53;;;11.50;65.40;;;;;;5058193;28;20055;-85
2023/05/04 07:04:49;;;;;;;4.95;1.85;;;11.60;65.40;;;;;;5058265;28;20400;-85
2023/05/04 07:07:16;;;;;;;3.47;1.92;;;11.60;65.30;;;;;;5043874;28;20044;-86
2023/05/04 07:09:46;;;;;;;4.70;1.98;;;11.60;65.20;;;;;;5047454;28;20045;-86
2023/05/04 07:12:17;;;;;;;5.65;2.20;;;11.70;65.30;;;;;;5069470;28;20449;-86
2023/05/04 07:14:44;;;;;;;5.65;2.03;;;11.70;65.20;;;;;;5057446;28;20508;-85
2023/05/04 07:17:13;;;;;;;3.50;1.67;;;11.70;65.20;;;;;;5043892;28;20049;-87
2023/05/04 07:19:43;;;;;;;3.53;1.80;;;11.70;65.80;;;;;;5051758;28;20070;-85
2023/05/04 07:22:10;;;;;;;2.75;1.35;;;11.80;65.20;;;;;;5051412;28;20071;-83
2023/05/04 07:24:38;;;;;;;5.10;2.33;;;11.80;65.20;;;;;;5045087;28;20076;-84
2023/05/04 07:27:05;;;;;;;3.00;1.52;;;11.90;65.20;;;;;;5057099;28;20052;-84
2023/05/04 07:29:35;;;;;;;3.22;1.73;;;11.90;65.00;;;;;;5051909;28;20040;-84
2023/05/04 07:32:02;;;;;;;2.90;1.50;;;12.00;64.90;;;;;;5029929;28;20403;-88
2023/05/04 07:34:30;;;;;;;3.58;1.85;;;12.00;64.80;;;;;;5063041;28;20596;-88
2023/05/04 07:37:14;;;;;;;3.83;2.28;;;12.10;64.80;;;;;;5058123;28;20048;-88
2023/05/04 07:39:46;;;;;;;2.67;1.33;;;12.20;64.90;;;;;;5044098;28;20136;-88
2023/05/04 07:42:17;;;;;;;3.38;1.92;;;12.30;64.80;;;;;;5072604;28;20136;-83
2023/05/04 07:44:45;;;;;;;2.95;1.50;;;12.30;64.60;;;;;;5050473;28;20041;-83
2023/05/04 07:47:14;;;;;;;4.05;1.60;;;12.50;64.40;;;;;;5036196;28;20045;-84
2023/05/04 07:49:44;;;;;;;3.55;1.13;;;12.60;64.30;;;;;;5037899;28;20041;-87
2023/05/04 07:52:12;;;;;;;2.78;1.52;;;12.70;64.10;;;;;;5055658;28;20120;-89
2023/05/04 07:54:43;;;;;;;3.17;1.48;;;12.80;63.90;;;;;;5055858;28;20048;-88
2023/05/04 07:57:11;;;;;;;2.80;1.58;;;12.90;63.90;;;;;;5043563;28;20102;-87
2023/05/04 07:59:40;;;;;;;2.72;1.92;;;13.00;63.70;;;;;;5041942;28;20049;-87
2023/05/04 08:02:08;;;;;;;3.55;1.70;;;13.10;63.70;;;;;;5054028;28;20074;-87
2023/05/04 08:04:41;;;;;;;3.20;1.95;;;13.20;63.60;;;;;;5052768;28;20516;-88
2023/05/04 08:07:08;;;;;;;2.53;1.45;;;13.30;63.60;;;;;;5071766;28;20044;-84
2023/05/04 08:09:35;;;;;;;4.63;1.40;;;13.40;63.50;;;;;;5058560;28;20041;-85
2023/05/04 08:12:03;;;;;;;2.50;1.35;;;13.50;63.40;;;;;;5055047;28;20489;-90
2023/05/04 08:14:30;;;;;;;3.20;1.63;;;13.60;63.20;;;;;;5049144;28;20095;-90
2023/05/04 08:17:00;;;;;;;3.60;1.63;;;13.70;63.10;;;;;;5038158;28;20052;-91
2023/05/04 08:19:28;;;;;;;4.07;1.58;;;13.90;62.90;;;;;;5057014;28;20055;-89
2023/05/04 08:21:55;;;;;;;3.90;1.85;;;14.00;62.60;;;;;;5043779;28;20098;-85
2023/05/04 08:24:25;;;;;;;3.83;1.80;;;14.20;62.40;;;;;;5036940;28;20564;-91
2023/05/04 08:26:55;;;;;;;3.95;2.30;;;14.30;62.20;;;;;;5050753;28;20123;-85
2023/05/04 08:29:35;;;;;;;4.10;1.65;;;14.50;62.10;;;;;;5051421;28;20049;-90
2023/05/04 08:32:07;;;;;;;3.25;1.95;;;14.50;61.90;;;;;;5047690;28;20049;-90
2023/05/04 08:34:35;;;;;;;4.95;1.77;;;14.70;61.80;;;;;;5051681;28;20049;-86
2023/05/04 08:37:02;;;;;;;3.35;1.95;;;14.70;61.70;;;;;;5051754;28;20048;-86
2023/05/04 08:39:31;;;;;;;3.47;1.92;;;14.80;61.70;;;;;;5025983;28;20062;-86
2023/05/04 08:41:58;;;;;;;3.83;2.03;;;14.90;61.60;;;;;;5050248;28;20143;-91
2023/05/04 08:44:25;;;;;;;4.78;2.00;;;15.00;61.40;;;;;;5054229;28;20059;-91
2023/05/04 08:46:56;;;;;;;3.33;1.55;;;15.10;61.30;;;;;;5037222;28;20053;-91
2023/05/04 08:49:23;;;;;;;2.88;1.70;;;15.10;61.20;;;;;;5052613;28;20048;-90
2023/05/04 08:51:51;;;;;;;5.28;2.28;;;15.30;61.00;;;;;;5038992;28;20048;-89
2023/05/04 08:54:20;;;;;;;4.07;2.03;;;15.40;60.80;;;;;;5037092;28;20045;-89
2023/05/04 08:56:50;;;;;;;3.30;1.77;;;15.50;60.60;;;;;;5039032;28;20045;-89
2023/05/04 08:59:22;;;;;;;4.00;1.30;;;15.60;60.60;;;;;;5056328;28;20072;-89
2023/05/04 09:01:58;;;;;;;4.82;2.35;;;15.60;60.30;;;;;;5054719;28;20052;-90
2023/05/04 09:04:25;;;;;;;5.28;2.08;;;15.70;60.50;;;;;;5047150;28;20047;-92
2023/05/04 09:06:57;;;;;;;3.22;1.73;;;15.70;60.10;;;;;;5045907;28;20087;-90
2023/05/04 09:09:34;;;;;;;6.80;1.88;;;15.80;60.00;;;;;;5041303;28;20045;-90
2023/05/04 09:12:01;;;;;;;3.17;1.90;;;15.90;59.90;;;;;;5056582;28;20561;-89
2023/05/04 09:14:35;;;;;;;3.90;2.00;;;15.90;59.80;;;;;;5011641;28;20056;-90
2023/05/04 09:17:11;;;;;;;2.60;1.33;;;16.00;59.80;;;;;;5051376;28;20044;-89
2023/05/04 09:19:42;;;;;;;2.78;1.48;;;16.10;59.70;;;;;;5057243;28;20049;-89
2023/05/04 09:22:15;;;;;;;2.50;1.23;;;16.30;59.60;;;;;;5041117;28;20041;-89
2023/05/04 09:24:44;;;;;;;4.20;1.98;;;16.40;59.40;;;;;;5056586;28;20065;-90
2023/05/04 09:27:16;;;;;;;3.90;2.13;;;16.50;59.30;;;;;;5060590;28;20049;-90
2023/05/04 09:29:52;;;;;;;3.72;1.83;;;16.60;59.10;;;;;;5056689;28;20041;-89
2023/05/04 09:32:29;;;;;;;2.92;1.75;;;16.70;58.90;;;;;;5073371;28;20055;-90
2023/05/04 09:34:56;;;;;;;5.13;2.20;;;16.70;58.80;;;;;;5072380;28;20059;-90
2023/05/04 09:37:25;;;;;;;3.35;1.90;;;16.70;58.90;;;;;;5045724;28;20140;-91
2023/05/04 09:39:58;;;;;;;3.92;1.80;;;16.70;58.90;;;;;;5053583;28;20045;-89
2023/05/04 09:42:29;;;;;;;3.28;1.95;;;16.70;58.80;;;;;;5052959;28;20041;-90
2023/05/04 09:45:05;;;;;;;4.00;1.98;;;16.70;58.80;;;;;;5039323;28;20503;-90
2023/05/04 09:47:43;;;;;;;4.32;2.10;;;16.70;58.90;;;;;;5050558;28;20514;-87
2023/05/04 09:50:18;;;;;;;5.57;2.45;;;16.70;58.90;;;;;;5038322;28;20047;-93
2023/05/04 09:52:52;;;;;;;5.05;1.80;;;16.80;58.80;;;;;;5048537;28;20094;-89
2023/05/04 09:55:22;;;;;;;3.08;1.88;;;16.90;58.70;;;;;;5051787;28;20048;-90
2023/05/04 09:57:50;;;;;;;3.47;1.80;;;17.00;58.60;;;;;;5046715;28;20036;-89
2023/05/04 10:00:17;;;;;;;3.85;2.22;;;17.00;58.50;;;;;;5053535;28;20495;-84
2023/05/04 10:02:46;;;;;;;7.10;2.03;;;17.10;58.50;;;;;;5046253;28;20447;-85
2023/05/04 10:05:19;;;;;;;3.40;1.73;;;17.20;58.30;;;;;;5036112;28;20041;-89
2023/05/04 10:07:47;;;;;;;5.35;2.17;;;17.30;58.80;;;;;;5050064;28;20037;-85
2023/05/04 10:10:15;;;;;;;3.58;2.17;;;17.40;58.10;;;;;;5064428;28;20032;-86
2023/05/04 10:12:44;;;;;;;4.68;1.70;;;17.60;57.90;;;;;;5046892;28;20485;-86
2023/05/04 10:15:12;;;;;;;2.63;1.50;;;17.70;57.80;;;;;;5063310;28;20128;-90
2023/05/04 10:18:17;;;;;;;3.72;1.50;;;17.80;57.60;;;;;;5047051;28;20072;-85
2023/05/04 10:20:59;;;;;;;3.63;2.05;;;17.90;57.40;;;;;;5059904;28;20079;-86
2023/05/04 10:23:57;;;;;;;4.50;1.80;;;18.10;57.40;;;;;;5047523;28;20132;-89
2023/05/04 10:27:11;;;;;;;6.13;2.10;;;18.10;56.90;;;;;;5051469;28;20053;-90
2023/05/04 10:29:42;;;;;;;5.68;2.28;;;18.20;56.70;;;;;;5056411;28;20051;-86
2023/05/04 10:32:20;;;;;;;3.25;1.70;;;18.40;56.40;;;;;;5067903;28;20057;-87
2023/05/04 10:34:48;;;;;;;3.45;1.70;;;18.70;56.10;;;;;;5061573;28;20400;-88
2023/05/04 10:37:17;;;;;;;3.72;2.05;;;18.90;56.40;;;;;;5068347;28;20033;-87
2023/05/04 10:39:54;;;;;;;3.03;1.65;;;19.00;55.30;;;;;;5040405;28;20041;-89
2023/05/04 10:42:21;;;;;;;3.22;1.58;;;19.30;55.10;;;;;;5061023;28;20065;-89
2023/05/04 10:44:55;;;;;;;2.72;1.60;;;19.50;54.70;;;;;;5043318;28;20115;-90
2023/05/04 10:47:33;;;;;;;3.25;1.25;;;19.80;54.30;;;;;;5038632;28;20041;-89
2023/05/04 10:50:09;;;;;;;2.67;1.67;;;20.10;53.90;;;;;;5071800;28;20072;-89
2023/05/04 10:53:16;;;;;;;4.05;1.60;;;20.30;53.70;;;;;;5058172;28;20045;-94
2023/05/04 10:55:46;;;;;;;2.90;1.30;;;20.50;53.20;;;;;;5064013;28;20036;-92
2023/05/04 10:58:17;;;;;;;2.35;1.27;;;20.60;53.10;;;;;;5044634;28;20041;-91
2023/05/04 11:00:50;;;;;;;4.60;1.80;;;20.70;52.90;;;;;;5048546;28;20139;-87
2023/05/04 11:03:20;;;;;;;3.05;1.30;;;20.80;52.60;;;;;;5038574;28;20064;-87
2023/05/04 11:05:51;;;;;;;4.72;1.30;;;20.90;52.40;;;;;;5054639;28;20040;-88
2023/05/04 11:08:25;;;;;;;3.67;1.15;;;21.10;52.20;;;;;;5048598;28;20131;-93
2023/05/04 11:11:01;;;;;;;3.55;1.65;;;21.30;51.80;;;;;;5039079;28;20075;-88
2023/05/04 11:13:32;;;;;;;3.80;1.38;;;21.50;51.50;;;;;;5073489;28;20046;-89
2023/05/04 11:16:00;;;;;;;2.60;1.48;;;21.60;51.30;;;;;;5058122;28;20063;-89
2023/05/04 11:18:34;;;;;;;3.17;1.30;;;21.80;51.20;;;;;;5034897;28;20051;-88
2023/05/04 11:21:02;;;;;;;3.13;1.38;;;21.90;50.90;;;;;;5038073;28;20052;-92
2023/05/04 11:23:32;;;;;;;3.65;1.50;;;22.00;50.70;;;;;;5048874;28;20048;-83
2023/05/04 11:26:11;;;;;;;3.30;1.73;;;22.10;50.60;;;;;;5059591;28;20041;-88
2023/05/04 11:28:39;;;;;;;2.97;1.40;;;22.20;50.30;;;;;;5051560;28;20102;-87
2023/05/04 11:31:16;;;;;;;3.58;1.65;;;22.40;50.20;;;;;;5038352;28;20049;-88
2023/05/04 11:33:53;;;;;;;8.10;2.30;;;22.50;49.70;;;;;;5052363;28;20060;-86
2023/05/04 11:36:21;;;;;;;5.25;2.25;;;22.40;49.50;;;;;;5049470;28;20485;-87
2023/05/04 11:38:49;;;;;;;3.13;1.52;;;22.40;49.40;;;;;;5074108;28;20076;-86
2023/05/04 11:41:24;;;;;;;3.63;1.42;;;22.50;49.40;;;;;;5059891;28;20488;-87
2023/05/04 11:43:52;;;;;;;3.47;1.70;;;22.80;49.10;;;;;;5049833;28;20061;-86
2023/05/04 11:46:19;;;;;;;2.90;1.60;;;23.00;48.60;;;;;;5068375;28;20546;-86
2023/05/04 11:48:47;;;;;;;4.03;1.67;;;23.20;48.50;;;;;;5043608;28;20048;-87
2023/05/04 11:51:17;;;;;;;3.28;1.48;;;23.30;48.20;;;;;;5044472;28;20122;-84
2023/05/04 11:53:44;;;;;;;2.95;1.30;;;23.50;47.90;;;;;;5038653;28;20041;-88
2023/05/04 11:56:13;;;;;;;3.20;1.60;;;23.60;47.80;;;;;;5053059;28;20140;-83
2023/05/04 11:58:40;;;;;;;3.83;1.85;;;23.80;47.80;;;;;;5056166;28;20515;-81
2023/05/04 12:01:07;;;;;;;5.20;1.45;;;23.90;47.30;;;;;;5056017;28;20090;-81
2023/05/04 12:03:38;;;;;;;3.60;1.58;;;23.90;47.30;;;;;;5022763;28;20055;-87
2023/05/04 12:06:40;;;;;;;3.22;1.50;;;24.10;47.30;;;;;;5060361;28;20045;-88
2023/05/04 12:09:09;;;;;;;3.95;1.55;;;24.20;47.00;;;;;;5048586;28;20484;-85
2023/05/04 12:11:39;;;;;;;3.25;1.35;;;24.30;46.90;;;;;;5054593;28;20044;-86
2023/05/04 12:14:12;;;;;;;4.00;1.90;;;24.30;46.90;;;;;;5048802;28;20077;-86
2023/05/04 12:16:41;;;;;;;1.88;1.00;;;24.50;46.50;;;;;;5049790;28;20047;-86
2023/05/04 12:19:11;;;;;;;4.28;1.50;;;24.70;46.40;;;;;;5069459;28;20048;-83
2023/05/04 12:21:52;;;;;;;3.20;1.63;;;25.00;46.10;;;;;;5039976;28;20049;-84
2023/05/04 12:24:23;;;;;;;2.70;1.40;;;25.20;45.70;;;;;;5054847;28;20051;-83
2023/05/04 12:26:54;;;;;;;4.35;1.75;;;25.50;45.60;;;;;;5053813;28;20046;-90
2023/05/04 12:30:21;;;;;;;4.07;2.10;;;25.70;45.30;;;;;;5033525;28;20094;-89
2023/05/04 12:33:00;;;;;;;3.97;1.83;;;25.90;44.90;;;;;;5051289;28;20048;-87
2023/05/04 12:35:30;;;;;;;3.78;1.65;;;25.90;44.60;;;;;;5035988;28;20055;-86
2023/05/04 12:38:00;;;;;;;3.40;1.38;;;26.00;44.40;;;;;;5050288;28;20481;-86
2023/05/04 12:40:28;;;;;;;3.30;1.50;;;26.20;44.30;;;;;;5072244;28;20044;-81
2023/05/04 12:42:55;;;;;;;4.13;1.35;;;26.40;44.10;;;;;;5066918;28;20041;-88
2023/05/04 12:45:57;;;;;;;2.95;1.25;;;26.50;43.60;;;;;;5042294;28;20131;-86
2023/05/04 12:57:43;;;;;;;3.28;1.35;;;27.30;42.50;;;;;;5071402;28;20098;-88
2023/05/04 13:00:35;;;;;;;3.58;0.90;;;27.40;42.80;;;;;;5044571;28;20037;-82
2023/05/04 13:03:07;;;;;;;4.03;1.35;;;27.60;42.80;;;;;;5054971;28;20045;-81
2023/05/04 13:05:37;;;;;;;2.72;1.00;;;27.80;42.50;;;;;;5069956;28;20117;-86
2023/05/04 13:08:04;;;;;;;2.70;1.20;;;27.80;42.50;;;;;;5046963;28;20155;-84
2023/05/04 13:10:34;;;;;;;1.60;0.63;;;27.40;42.40;;;;;;5039225;28;20080;-88
2023/05/04 13:13:06;;;;;;;3.70;1.25;;;27.30;42.60;;;;;;5045247;28;20051;-83
2023/05/04 13:15:44;;;;;;;3.08;1.13;;;27.40;42.50;;;;;;5058321;28;20055;-87